Time;durP1;ratioP1;P1;durP2;ratioP2;P2;SDS_P1;SDS_P2;PMS_P1;PMS_P2;Temp;Humidity;BMP_temperature;BMP_pressure;BME280_temperature;BME280_humidity;BME280_pressure;Samples;Min_cycle;Max_cycle;Signal;HPM_P1;HPM_P2
2021/05/25 00:01:38;;;;;;;;;;;8.00;99.90;;;;;;5091715;28;20301;-72
2021/05/25 00:04:04;;;;;;;;;;;8.00;99.90;;;;;;5091301;28;19970;-73
2021/05/25 00:06:29;;;;;;;;;;;8.00;99.90;;;;;;5088852;28;19915;-72
2021/05/25 00:08:55;;;;;;;;;;;7.90;99.90;;;;;;5091327;28;19912;-73
2021/05/25 00:11:20;;;;;;;;;;;7.80;99.90;;;;;;5091479;28;19915;-72
2021/05/25 00:13:46;;;;;;;;;;;7.80;99.90;;;;;;5091591;28;19943;-72
2021/05/25 00:16:11;;;;;;;;;;;7.70;99.90;;;;;;5090266;28;19908;-70
2021/05/25 00:18:38;;;;;;;;;;;7.60;99.90;;;;;;5090442;28;19909;-72
2021/05/25 00:21:03;;;;;;;;;;;7.60;99.90;;;;;;5091098;28;19908;-71
2021/05/25 00:23:29;;;;;;;;;;;7.50;99.90;;;;;;5091100;28;20067;-72
2021/05/25 00:25:54;;;;;;;;;;;7.50;99.90;;;;;;5090388;28;20416;-72
2021/05/25 00:28:23;;;;;;;;;;;7.50;99.90;;;;;;5096820;28;19908;-72
2021/05/25 00:30:49;;;;;;;;;;;7.50;99.90;;;;;;5111076;28;19908;-72
2021/05/25 00:33:15;;;;;;;;;;;7.50;99.90;;;;;;5111501;28;19912;-73
2021/05/25 00:35:40;;;;;;;;;;;7.50;99.90;;;;;;5110575;28;19907;-73
2021/05/25 00:38:07;;;;;;;;;;;7.50;99.90;;;;;;5111463;28;20383;-73
2021/05/25 00:40:32;;;;;;;;;;;7.50;99.90;;;;;;5111463;28;19934;-72
2021/05/25 00:42:58;;;;;;;;;;;7.40;99.90;;;;;;5111312;28;19908;-71
2021/05/25 00:45:23;;;;;;;;;;;7.40;99.90;;;;;;5110980;28;19950;-73
2021/05/25 00:47:49;;;;;;;;;;;7.40;99.90;;;;;;5110594;28;20279;-73
2021/05/25 00:50:19;;;;;;;;;;;7.30;99.90;;;;;;5111131;28;19907;-72
2021/05/25 00:52:46;;;;;;;;;;;7.30;99.90;;;;;;5111186;28;19912;-72
2021/05/25 00:55:14;;;;;;;;;;;7.30;99.90;;;;;;5111288;28;19990;-72
2021/05/25 00:57:40;;;;;;;;;;;7.20;99.90;;;;;;5100698;28;19908;-73
2021/05/25 01:00:06;;;;;;;;;;;7.20;99.90;;;;;;5090448;28;19908;-73
2021/05/25 01:02:33;;;;;;;;;;;7.10;99.90;;;;;;5090928;28;19953;-72
2021/05/25 01:04:58;;;;;;;;;;;7.10;99.90;;;;;;5090364;28;19912;-72
2021/05/25 01:07:24;;;;;;;;;;;7.10;99.90;;;;;;5090039;28;19980;-73
2021/05/25 01:09:52;;;;;;;;;;;7.10;99.90;;;;;;5091043;28;19982;-73
2021/05/25 01:12:17;;;;;;;;;;;7.00;99.90;;;;;;5090877;28;20384;-72
2021/05/25 01:14:50;;;;;;;;;;;7.00;99.90;;;;;;5090399;28;19908;-73
2021/05/25 01:17:15;;;;;;;;;;;7.00;99.90;;;;;;5090032;28;19915;-73
2021/05/25 01:19:41;;;;;;;;;;;6.90;99.90;;;;;;5090657;28;19908;-73
2021/05/25 01:22:06;;;;;;;;;;;6.90;99.90;;;;;;5090847;28;19912;-73
2021/05/25 01:24:32;;;;;;;;;;;6.90;99.90;;;;;;5090837;28;19916;-73
2021/05/25 01:27:03;;;;;;;;;;;6.80;99.90;;;;;;5089267;28;20007;-72
2021/05/25 01:29:28;;;;;;;;;;;6.80;99.90;;;;;;5089408;28;19939;-73
2021/05/25 01:31:54;;;;;;;;;;;6.80;99.90;;;;;;5094382;28;19966;-72
2021/05/25 01:34:19;;;;;;;;;;;6.80;99.90;;;;;;5094035;28;19912;-73
2021/05/25 01:36:45;;;;;;;;;;;6.90;99.90;;;;;;5093445;28;20397;-72
2021/05/25 01:39:12;;;;;;;;;;;6.90;99.90;;;;;;5092600;28;19950;-73
2021/05/25 01:41:37;;;;;;;;;;;6.90;99.90;;;;;;5094022;28;19916;-71
2021/05/25 01:44:03;;;;;;;;;;;6.90;99.90;;;;;;5094235;28;20287;-73
2021/05/25 01:46:28;;;;;;;;;;;6.90;99.90;;;;;;5092855;28;19912;-73
2021/05/25 01:48:54;;;;;;;;;;;6.90;99.90;;;;;;5090330;28;19951;-72
2021/05/25 01:51:20;;;;;;;;;;;6.80;99.90;;;;;;5093676;28;19959;-70
2021/05/25 01:53:45;;;;;;;;;;;6.90;99.90;;;;;;5092039;28;19908;-72
2021/05/25 01:56:11;;;;;;;;;;;6.90;99.90;;;;;;5092732;28;20154;-72
2021/05/25 01:58:36;;;;;;;;;;;6.80;99.90;;;;;;5093742;28;19912;-72
2021/05/25 02:01:06;;;;;;;;;;;6.80;99.90;;;;;;5093340;28;20353;-72
2021/05/25 02:03:32;;;;;;;;;;;6.80;99.90;;;;;;5093451;28;19916;-71
2021/05/25 02:05:58;;;;;;;;;;;6.80;99.90;;;;;;5091458;28;19912;-73
2021/05/25 02:08:24;;;;;;;;;;;6.80;99.90;;;;;;5093777;28;19928;-72
2021/05/25 02:10:50;;;;;;;;;;;6.80;99.90;;;;;;5093617;28;19908;-72
2021/05/25 02:13:17;;;;;;;;;;;6.80;99.90;;;;;;5093255;28;20000;-71
2021/05/25 02:15:43;;;;;;;;;;;6.80;99.90;;;;;;5091628;28;19912;-73
2021/05/25 02:18:10;;;;;;;;;;;6.80;99.90;;;;;;5092123;28;19951;-73
2021/05/25 02:20:36;;;;;;;;;;;6.80;99.90;;;;;;5093044;28;19961;-73
2021/05/25 02:23:02;;;;;;;;;;;6.80;99.90;;;;;;5093288;28;19908;-73
2021/05/25 02:25:28;;;;;;;;;;;6.80;99.90;;;;;;5091919;28;19914;-73
2021/05/25 02:27:53;;;;;;;;;;;6.70;99.90;;;;;;5092325;28;19912;-73
2021/05/25 02:30:19;;;;;;;;;;;6.70;99.90;;;;;;5092635;28;19908;-72
2021/05/25 02:32:44;;;;;;;;;;;6.70;99.90;;;;;;5092907;28;20348;-71
2021/05/25 02:35:10;;;;;;;;;;;6.70;99.90;;;;;;5092825;28;19953;-73
2021/05/25 02:37:35;;;;;;;;;;;6.60;99.90;;;;;;5091973;28;20354;-72
2021/05/25 02:40:01;;;;;;;;;;;6.60;99.90;;;;;;5092785;28;19969;-72
2021/05/25 02:42:27;;;;;;;;;;;6.50;99.90;;;;;;5092047;28;19977;-73
2021/05/25 02:44:53;;;;;;;;;;;6.50;99.90;;;;;;5092231;28;20337;-73
2021/05/25 02:47:18;;;;;;;;;;;6.50;99.90;;;;;;5092035;28;19994;-73
2021/05/25 02:49:45;;;;;;;;;;;6.50;99.90;;;;;;5092386;28;19912;-73
2021/05/25 02:52:10;;;;;;;;;;;6.50;99.90;;;;;;5092896;28;19908;-73
2021/05/25 02:54:35;;;;;;;;;;;6.50;99.90;;;;;;5091063;28;19926;-73
2021/05/25 02:57:01;;;;;;;;;;;6.50;99.90;;;;;;5091572;28;19908;-72
2021/05/25 02:59:26;;;;;;;;;;;6.50;99.90;;;;;;5086248;28;19919;-73
2021/05/25 03:01:52;;;;;;;;;;;6.50;99.90;;;;;;5091956;28;20011;-73
2021/05/25 03:04:17;;;;;;;;;;;6.50;99.90;;;;;;5091947;28;19912;-73
2021/05/25 03:06:43;;;;;;;;;;;6.40;99.90;;;;;;5091187;28;20347;-71
2021/05/25 03:09:08;;;;;;;;;;;6.40;99.90;;;;;;5088939;28;20003;-73
2021/05/25 03:11:34;;;;;;;;;;;6.40;99.90;;;;;;5091472;28;20388;-72
2021/05/25 03:14:00;;;;;;;;;;;6.40;99.90;;;;;;5091654;28;19977;-73
2021/05/25 03:16:25;;;;;;;;;;;6.30;99.90;;;;;;5090794;28;19947;-72
2021/05/25 03:18:51;;;;;;;;;;;6.30;99.90;;;;;;5091545;28;20330;-73
2021/05/25 03:21:16;;;;;;;;;;;6.30;99.90;;;;;;5091793;28;19912;-73
2021/05/25 03:23:42;;;;;;;;;;;6.30;99.90;;;;;;5091646;28;20259;-72
2021/05/25 03:26:07;;;;;;;;;;;6.20;99.90;;;;;;5085804;28;19908;-73
2021/05/25 03:28:33;;;;;;;;;;;6.20;99.90;;;;;;5091508;28;19908;-73
2021/05/25 03:30:58;;;;;;;;;;;6.10;99.90;;;;;;5092024;28;19908;-73
2021/05/25 03:33:24;;;;;;;;;;;6.10;99.90;;;;;;5091832;28;19962;-73
2021/05/25 03:35:49;;;;;;;;;;;6.00;99.90;;;;;;5091129;28;19912;-73
2021/05/25 03:38:15;;;;;;;;;;;6.00;99.90;;;;;;5091810;28;19922;-73
2021/05/25 03:40:40;;;;;;;;;;;6.00;99.90;;;;;;5091260;28;20254;-73
2021/05/25 03:43:06;;;;;;;;;;;6.00;99.90;;;;;;5090292;28;19912;-71
2021/05/25 03:45:32;;;;;;;;;;;6.10;99.90;;;;;;5091224;28;19999;-73
2021/05/25 03:47:57;;;;;;;;;;;6.10;99.90;;;;;;5091042;28;19912;-72
2021/05/25 03:50:23;;;;;;;;;;;6.10;99.90;;;;;;5091475;28;19934;-72
2021/05/25 03:52:49;;;;;;;;;;;6.20;99.90;;;;;;5091550;28;19915;-73
2021/05/25 03:55:33;;;;;;;;;;;6.20;99.90;;;;;;5086894;28;19931;-72
2021/05/25 04:00:44;;;;;;;;;;;6.30;99.90;;;;;;5091721;28;20012;-73
2021/05/25 04:03:09;;;;;;;;;;;6.40;99.90;;;;;;5091336;28;19947;-73
2021/05/25 04:05:35;;;;;;;;;;;6.40;99.90;;;;;;5091145;28;20356;-72
2021/05/25 04:08:00;;;;;;;;;;;6.50;99.90;;;;;;5091056;28;19908;-71
2021/05/25 04:10:26;;;;;;;;;;;6.50;99.90;;;;;;5090884;28;20278;-73
2021/05/25 04:12:51;;;;;;;;;;;6.50;99.90;;;;;;5091389;28;19904;-73
2021/05/25 04:15:18;;;;;;;;;;;6.50;99.90;;;;;;5091190;28;19915;-72
2021/05/25 04:17:43;;;;;;;;;;;6.60;99.90;;;;;;5090671;28;20383;-73
2021/05/25 04:20:09;;;;;;;;;;;6.60;99.90;;;;;;5091336;28;19948;-72
2021/05/25 04:22:35;;;;;;;;;;;6.60;99.90;;;;;;5090956;28;19999;-71
2021/05/25 04:25:01;;;;;;;;;;;6.60;99.90;;;;;;5088347;28;20038;-72
2021/05/25 04:27:26;;;;;;;;;;;6.70;99.90;;;;;;5088026;28;19947;-72
2021/05/25 04:29:52;;;;;;;;;;;6.70;99.90;;;;;;5091073;28;19915;-72
2021/05/25 04:32:17;;;;;;;;;;;6.70;99.90;;;;;;5091125;28;19915;-72
2021/05/25 04:34:42;;;;;;;;;;;6.70;99.90;;;;;;5091004;28;20304;-73
2021/05/25 04:37:08;;;;;;;;;;;6.80;99.90;;;;;;5090258;28;20003;-73
2021/05/25 04:39:33;;;;;;;;;;;6.80;99.90;;;;;;5089088;28;19920;-73
2021/05/25 04:41:59;;;;;;;;;;;6.80;99.90;;;;;;5091179;28;20353;-72
2021/05/25 04:44:24;;;;;;;;;;;6.80;99.90;;;;;;5090758;28;20275;-73
2021/05/25 04:46:50;;;;;;;;;;;6.90;99.90;;;;;;5089989;28;20277;-72
2021/05/25 04:49:15;;;;;;;;;;;7.00;99.90;;;;;;5091353;28;19909;-70
2021/05/25 04:51:41;;;;;;;;;;;7.00;99.90;;;;;;5091016;28;20322;-73
2021/05/25 04:54:06;;;;;;;;;;;7.10;99.90;;;;;;5090492;28;19989;-72
2021/05/25 04:56:34;;;;;;;;;;;7.20;99.90;;;;;;5084435;28;19908;-72
2021/05/25 04:58:59;;;;;;;;;;;7.30;99.90;;;;;;5083287;28;19928;-71
2021/05/25 05:01:27;;;;;;;;;;;7.40;99.90;;;;;;5090868;28;19908;-73
2021/05/25 05:03:53;;;;;;;;;;;7.50;99.90;;;;;;5090855;28;19912;-73
2021/05/25 05:06:19;;;;;;;;;;;7.60;99.90;;;;;;5093584;28;19909;-72
2021/05/25 05:08:44;;;;;;;;;;;7.60;99.90;;;;;;5094553;28;19962;-73
2021/05/25 05:11:09;;;;;;;;;;;7.70;99.90;;;;;;5094652;28;19909;-73
2021/05/25 05:13:35;;;;;;;;;;;7.70;99.90;;;;;;5094583;28;19953;-73
2021/05/25 05:16:01;;;;;;;;;;;7.70;99.90;;;;;;5094020;28;19915;-73
2021/05/25 05:18:26;;;;;;;;;;;7.80;99.90;;;;;;5094490;28;19912;-71
2021/05/25 05:20:52;;;;;;;;;;;7.80;99.90;;;;;;5094394;28;19985;-73
2021/05/25 05:23:17;;;;;;;;;;;7.90;99.90;;;;;;5094179;28;19912;-73
2021/05/25 05:25:43;;;;;;;;;;;8.10;99.90;;;;;;5093177;28;19916;-72
2021/05/25 05:28:08;;;;;;;;;;;8.10;99.90;;;;;;5088672;28;20385;-71
2021/05/25 05:30:35;;;;;;;;;;;8.20;99.90;;;;;;5092939;28;19974;-73
2021/05/25 05:33:00;;;;;;;;;;;8.20;99.90;;;;;;5094174;28;20412;-73
2021/05/25 05:35:26;;;;;;;;;;;8.20;99.90;;;;;;5093690;28;20240;-73
2021/05/25 05:37:51;;;;;;;;;;;8.20;99.90;;;;;;5092740;28;19908;-72
2021/05/25 05:40:17;;;;;;;;;;;8.30;99.90;;;;;;5094087;28;20273;-71
2021/05/25 05:42:42;;;;;;;;;;;8.30;99.90;;;;;;5094177;28;19915;-72
2021/05/25 05:45:08;;;;;;;;;;;8.30;99.90;;;;;;5093927;28;19912;-72
2021/05/25 05:47:34;;;;;;;;;;;8.40;99.90;;;;;;5093214;28;20335;-73
2021/05/25 05:50:09;;;;;;;;;;;8.50;99.90;;;;;;5094134;28;19908;-73
2021/05/25 05:52:35;;;;;;;;;;;8.70;99.90;;;;;;5093931;28;20281;-71
2021/05/25 05:55:00;;;;;;;;;;;8.80;99.90;;;;;;5093532;28;19908;-72
2021/05/25 05:57:26;;;;;;;;;;;9.20;99.90;;;;;;5092952;28;19912;-72
2021/05/25 05:59:52;;;;;;;;;;;9.50;99.90;;;;;;5087211;28;19911;-73
2021/05/25 06:02:18;;;;;;;;;;;9.90;99.90;;;;;;5093685;28;19914;-72
2021/05/25 06:04:43;;;;;;;;;;;10.10;99.90;;;;;;5093453;28;19912;-71
2021/05/25 06:07:09;;;;;;;;;;;10.00;99.90;;;;;;5092568;28;19938;-72
2021/05/25 06:09:37;;;;;;;;;;;9.90;99.90;;;;;;5093037;28;19916;-73
2021/05/25 06:12:02;;;;;;;;;;;9.80;99.90;;;;;;5093584;28;19999;-73
2021/05/25 06:14:28;;;;;;;;;;;9.80;99.90;;;;;;5093276;28;20396;-72
2021/05/25 06:16:54;;;;;;;;;;;9.80;99.90;;;;;;5091438;28;19912;-72
2021/05/25 06:19:19;;;;;;;;;;;9.80;99.90;;;;;;5092531;28;19912;-72
2021/05/25 06:21:45;;;;;;;;;;;9.90;99.90;;;;;;5091218;28;19926;-72
2021/05/25 06:24:13;;;;;;;;;;;10.20;99.90;;;;;;5092955;28;19912;-72
2021/05/25 06:26:38;;;;;;;;;;;10.40;99.90;;;;;;5077820;28;20259;-72
2021/05/25 06:29:04;;;;;;;;;;;10.80;99.90;;;;;;5086187;28;19915;-70
2021/05/25 06:31:29;;;;;;;;;;;11.20;99.90;;;;;;5092771;28;19912;-72
2021/05/25 06:33:55;;;;;;;;;;;11.40;99.90;;;;;;5092799;28;19931;-72
2021/05/25 06:36:20;;;;;;;;;;;11.30;99.90;;;;;;5092631;28;19908;-72
2021/05/25 06:38:46;;;;;;;;;;;11.10;99.90;;;;;;5092941;28;19912;-73
2021/05/25 06:41:11;;;;;;;;;;;11.00;99.90;;;;;;5090320;28;19951;-72
2021/05/25 06:43:37;;;;;;;;;;;11.30;99.90;;;;;;5088767;28;20364;-72
2021/05/25 06:46:02;;;;;;;;;;;11.70;99.90;;;;;;5079892;28;19913;-69
2021/05/25 06:48:28;;;;;;;;;;;12.10;99.90;;;;;;5084719;28;19912;-72
2021/05/25 06:50:53;;;;;;;;;;;12.00;99.90;;;;;;5083061;28;19970;-73
2021/05/25 06:53:19;;;;;;;;;;;11.90;99.90;;;;;;5091408;28;20002;-72
2021/05/25 06:55:44;;;;;;;;;;;11.50;99.90;;;;;;5089265;28;20365;-71
2021/05/25 06:58:10;;;;;;;;;;;11.20;99.90;;;;;;5086653;28;19927;-73
2021/05/25 07:00:35;;;;;;;;;;;10.80;99.90;;;;;;5088651;28;19908;-73
2021/05/25 07:03:01;;;;;;;;;;;11.00;99.90;;;;;;5091344;28;19912;-72
2021/05/25 07:05:26;;;;;;;;;;;11.60;99.90;;;;;;5091719;28;19916;-73
2021/05/25 07:07:52;;;;;;;;;;;12.00;99.90;;;;;;5088039;28;20001;-73
2021/05/25 07:10:17;;;;;;;;;;;12.20;99.90;;;;;;5088170;28;19912;-73
2021/05/25 07:12:43;;;;;;;;;;;12.60;99.90;;;;;;5089804;28;19912;-73
2021/05/25 07:15:09;;;;;;;;;;;13.10;99.90;;;;;;5089977;28;19955;-73
2021/05/25 07:17:34;;;;;;;;;;;13.50;99.10;;;;;;5090468;28;19908;-71
2021/05/25 07:20:00;;;;;;;;;;;13.70;98.00;;;;;;5090904;28;19908;-73
2021/05/25 07:22:25;;;;;;;;;;;13.90;98.00;;;;;;5090930;28;19912;-73
2021/05/25 07:24:51;;;;;;;;;;;14.10;97.20;;;;;;5090688;28;20006;-73
2021/05/25 07:27:17;;;;;;;;;;;14.20;96.40;;;;;;5089169;28;19919;-73
2021/05/25 07:29:42;;;;;;;;;;;14.00;96.50;;;;;;5084987;28;19908;-73
2021/05/25 07:32:08;;;;;;;;;;;13.60;97.10;;;;;;5091370;28;19909;-73
2021/05/25 07:34:34;;;;;;;;;;;13.80;97.20;;;;;;5090726;28;19939;-72
2021/05/25 07:36:59;;;;;;;;;;;13.80;96.00;;;;;;5090040;28;19908;-69
2021/05/25 07:39:25;;;;;;;;;;;13.90;96.40;;;;;;5091065;28;19908;-69
2021/05/25 07:41:50;;;;;;;;;;;13.40;95.80;;;;;;5091091;28;19957;-69
2021/05/25 07:44:16;;;;;;;;;;;13.10;96.60;;;;;;5091372;28;19912;-70
2021/05/25 07:46:41;;;;;;;;;;;13.40;96.70;;;;;;5091009;28;19915;-70
2021/05/25 07:49:07;;;;;;;;;;;13.60;97.10;;;;;;5090281;28;19912;-70
2021/05/25 07:51:32;;;;;;;;;;;13.60;97.50;;;;;;5091840;28;19916;-70
2021/05/25 07:53:58;;;;;;;;;;;13.60;96.20;;;;;;5091223;28;19912;-70
2021/05/25 07:56:24;;;;;;;;;;;13.50;97.20;;;;;;5091447;28;19915;-70
2021/05/25 07:58:49;;;;;;;;;;;13.90;97.60;;;;;;5085924;28;20372;-70
2021/05/25 08:01:15;;;;;;;;;;;14.40;96.40;;;;;;5091146;28;19954;-70
2021/05/25 08:03:40;;;;;;;;;;;14.80;96.00;;;;;;5090878;28;19916;-69
2021/05/25 08:06:06;;;;;;;;;;;14.80;94.30;;;;;;5089612;28;20011;-70
2021/05/25 08:08:31;;;;;;;;;;;14.50;94.40;;;;;;5091412;28;19930;-69
2021/05/25 08:10:57;;;;;;;;;;;14.10;94.60;;;;;;5091408;28;20284;-69
2021/05/25 08:13:23;;;;;;;;;;;13.90;96.00;;;;;;5090927;28;19931;-70
2021/05/25 08:15:50;;;;;;;;;;;14.20;95.50;;;;;;5090364;28;19912;-70
2021/05/25 08:21:01;;;;;;;;;;;14.40;94.80;;;;;;5090975;28;20387;-70
2021/05/25 08:23:26;;;;;;;;;;;14.60;94.90;;;;;;5090687;28;19912;-70
2021/05/25 08:25:52;;;;;;;;;;;15.00;94.50;;;;;;5089939;28;19912;-70
2021/05/25 08:28:18;;;;;;;;;;;14.80;92.30;;;;;;5084742;28;19909;-70
2021/05/25 08:30:44;;;;;;;;;;;14.30;92.80;;;;;;5090679;28;19991;-70
2021/05/25 08:33:10;;;;;;;;;;;13.80;93.60;;;;;;5080331;28;19962;-70
2021/05/25 08:35:36;;;;;;;;;;;13.50;95.10;;;;;;5090519;28;20316;-70
2021/05/25 08:38:06;;;;;;;;;;;13.50;96.00;;;;;;5090748;28;19912;-70
2021/05/25 08:40:32;;;;;;;;;;;13.60;94.60;;;;;;5093004;28;19960;-70
2021/05/25 08:42:58;;;;;;;;;;;13.40;93.70;;;;;;5095189;28;19953;-70
2021/05/25 08:45:24;;;;;;;;;;;13.10;94.70;;;;;;5095203;28;20369;-70
2021/05/25 08:47:50;;;;;;;;;;;12.80;94.30;;;;;;5094584;28;19915;-70
2021/05/25 08:50:17;;;;;;;;;;;12.60;95.00;;;;;;5095051;28;19908;-70
2021/05/25 08:52:43;;;;;;;;;;;12.40;95.00;;;;;;5091607;28;19923;-69
2021/05/25 08:55:09;;;;;;;;;;;12.40;95.50;;;;;;5091182;28;20728;-70
2021/05/25 08:57:35;;;;;;;;;;;12.30;95.50;;;;;;5102898;28;20506;-70
2021/05/25 09:00:00;;;;;;;;;;;12.30;95.60;;;;;;5088683;28;19937;-69
2021/05/25 09:02:26;;;;;;;;;;;12.20;94.50;;;;;;5108016;28;20010;-70
2021/05/25 09:05:05;;;;;;;;;;;12.20;95.00;;;;;;5114676;28;19999;-69
2021/05/25 09:07:44;;;;;;;;;;;12.30;95.10;;;;;;5109716;28;19908;-69
2021/05/25 09:10:15;;;;;;;;;;;12.40;95.80;;;;;;5108063;28;20312;-69
2021/05/25 09:12:45;;;;;;;;;;;12.60;95.30;;;;;;5103233;28;19912;-69
2021/05/25 09:15:12;;;;;;;;;;;12.50;94.90;;;;;;5104992;28;19912;-69
2021/05/25 09:17:38;;;;;;;;;;;12.80;95.60;;;;;;5108022;28;19946;-69
2021/05/25 09:20:04;;;;;;;;;;;13.40;95.30;;;;;;5112893;28;20169;-70
2021/05/25 09:22:34;;;;;;;;;;;13.80;94.50;;;;;;5114406;28;19990;-70
2021/05/25 09:25:25;;;;;;;;;;;14.00;93.40;;;;;;5113575;28;19919;-70
2021/05/25 09:28:03;;;;;;;;;;;13.90;94.30;;;;;;5104285;28;19943;-70
2021/05/25 09:30:30;;;;;;;;;;;14.40;93.90;;;;;;5081855;28;20351;-70
2021/05/25 09:32:58;;;;;;;;;;;14.40;93.90;;;;;;5093128;28;19909;-70
2021/05/25 09:35:25;;;;;;;;;;;14.10;92.90;;;;;;5093603;28;20368;-70
2021/05/25 09:37:51;;;;;;;;;;;13.60;94.40;;;;;;5092887;28;19909;-70
2021/05/25 09:40:18;;;;;;;;;;;13.20;96.20;;;;;;5093579;28;19995;-70
2021/05/25 09:42:47;;;;;;;;;;;13.30;98.10;;;;;;5093390;28;19915;-70
2021/05/25 09:45:16;;;;;;;;;;;13.80;96.00;;;;;;5093195;28;20494;-70
2021/05/25 09:47:53;;;;;;;;;;;14.40;94.70;;;;;;5092869;28;19916;-70
2021/05/25 09:50:22;;;;;;;;;;;14.90;93.00;;;;;;5093669;28;19912;-70
2021/05/25 09:53:07;;;;;;;;;;;15.00;93.20;;;;;;5093466;28;19908;-70
2021/05/25 09:55:46;;;;;;;;;;;14.70;92.40;;;;;;5093417;28;19915;-69
2021/05/25 09:58:11;;;;;;;;;;;14.50;92.60;;;;;;5087446;28;20277;-70
2021/05/25 10:00:39;;;;;;;;;;;14.50;94.20;;;;;;5092458;28;19908;-69
2021/05/25 10:03:06;;;;;;;;;;;14.90;93.30;;;;;;5093060;28;20097;-70
2021/05/25 10:05:31;;;;;;;;;;;14.80;92.60;;;;;;5093072;28;19913;-70
2021/05/25 10:08:00;;;;;;;;;;;14.60;93.30;;;;;;5093057;28;19915;-70
2021/05/25 10:10:29;;;;;;;;;;;14.40;92.40;;;;;;5093232;28;19908;-70
2021/05/25 10:12:55;;;;;;;;;;;14.10;92.60;;;;;;5092969;28;20310;-70
2021/05/25 10:15:23;;;;;;;;;;;13.80;92.70;;;;;;5092940;28;19999;-70
2021/05/25 10:20:27;;;;;;;;;;;14.30;93.30;;;;;;5093022;28;19947;-70
2021/05/25 10:22:53;;;;;;;;;;;14.90;93.20;;;;;;5093021;28;19935;-70
2021/05/25 10:25:19;;;;;;;;;;;15.40;93.10;;;;;;5092403;28;20368;-70
2021/05/25 10:27:45;;;;;;;;;;;15.10;92.40;;;;;;5090339;28;20053;-70
2021/05/25 10:30:31;;;;;;;;;;;14.80;92.70;;;;;;5088721;28;20287;-70
2021/05/25 10:33:06;;;;;;;;;;;15.00;93.20;;;;;;5071766;28;20287;-71
2021/05/25 10:35:50;;;;;;;;;;;15.50;93.10;;;;;;5072627;28;20357;-70
2021/05/25 10:38:16;;;;;;;;;;;15.90;92.10;;;;;;5088515;28;19908;-70
2021/05/25 10:40:45;;;;;;;;;;;16.10;90.90;;;;;;5092174;28;20383;-70
2021/05/25 10:43:30;;;;;;;;;;;16.10;90.00;;;;;;5092418;28;20300;-70
2021/05/25 10:46:15;;;;;;;;;;;15.80;90.70;;;;;;5091494;28;20309;-70
2021/05/25 10:49:02;;;;;;;;;;;15.50;90.50;;;;;;5090992;28;19909;-70
2021/05/25 10:51:51;;;;;;;;;;;15.30;90.90;;;;;;5092087;28;19908;-70
2021/05/25 10:54:23;;;;;;;;;;;15.40;92.00;;;;;;5091745;28;19916;-70
2021/05/25 10:56:48;;;;;;;;;;;15.90;91.40;;;;;;5086990;28;19908;-70
2021/05/25 10:59:15;;;;;;;;;;;16.00;90.20;;;;;;5082153;28;19908;-70
2021/05/25 11:01:41;;;;;;;;;;;15.50;91.10;;;;;;5078127;28;19915;-71
2021/05/25 11:04:11;;;;;;;;;;;15.30;92.30;;;;;;5084874;28;19916;-70
2021/05/25 11:06:38;;;;;;;;;;;15.80;92.50;;;;;;5089804;28;19912;-70
2021/05/25 11:09:39;;;;;;;;;;;16.30;90.00;;;;;;5090223;28;19908;-70
2021/05/25 11:12:07;;;;;;;;;;;16.50;89.70;;;;;;5024261;28;20372;-70
2021/05/25 11:14:33;;;;;;;;;;;17.00;87.00;;;;;;5056957;28;19915;-70
2021/05/25 11:17:18;;;;;;;;;;;16.30;84.80;;;;;;5083763;28;19912;-70
2021/05/25 11:19:55;;;;;;;;;;;15.50;85.80;;;;;;5080236;28;19955;-71
2021/05/25 11:22:39;;;;;;;;;;;14.70;89.60;;;;;;5086484;28;19916;-70
2021/05/25 11:25:07;;;;;;;;;;;14.10;90.90;;;;;;5086909;28;20090;-70
2021/05/25 11:27:41;;;;;;;;;;;13.50;91.40;;;;;;5082282;28;19912;-70
2021/05/25 11:30:11;;;;;;;;;;;13.40;91.60;;;;;;5098065;28;20007;-70
2021/05/25 11:32:38;;;;;;;;;;;13.40;92.50;;;;;;5095195;28;20014;-70
2021/05/25 11:35:04;;;;;;;;;;;13.50;92.40;;;;;;5083696;28;19909;-70
2021/05/25 11:37:38;;;;;;;;;;;13.60;93.20;;;;;;5085175;28;19999;-70
2021/05/25 11:40:12;;;;;;;;;;;13.90;93.00;;;;;;5085444;28;20022;-70
2021/05/25 11:42:37;;;;;;;;;;;13.90;94.50;;;;;;5089210;28;19977;-70
2021/05/25 11:45:03;;;;;;;;;;;13.70;94.60;;;;;;5079053;28;19913;-70
2021/05/25 11:47:29;;;;;;;;;;;13.50;95.50;;;;;;5070804;28;19912;-70
2021/05/25 11:49:55;;;;;;;;;;;13.30;94.60;;;;;;5076093;28;19915;-71
2021/05/25 11:52:34;;;;;;;;;;;13.20;94.90;;;;;;5078579;28;19970;-70
2021/05/25 11:55:04;;;;;;;;;;;13.20;95.70;;;;;;5077073;28;20365;-70
2021/05/25 11:57:32;;;;;;;;;;;13.70;94.90;;;;;;5081674;28;20042;-71
2021/05/25 11:59:59;;;;;;;;;;;14.10;93.50;;;;;;5080133;28;20285;-70
2021/05/25 12:02:25;;;;;;;;;;;14.00;93.60;;;;;;5076102;28;20370;-70
2021/05/25 12:04:59;;;;;;;;;;;13.90;97.90;;;;;;5078427;28;19920;-71
2021/05/25 12:07:24;;;;;;;;;;;14.30;99.00;;;;;;5081637;28;19908;-70
2021/05/25 12:09:52;;;;;;;;;;;14.70;98.40;;;;;;5080030;28;19968;-70
2021/05/25 12:12:22;;;;;;;;;;;15.20;98.30;;;;;;5074706;28;19912;-70
2021/05/25 12:14:47;;;;;;;;;;;15.60;94.10;;;;;;5083425;28;19918;-71
2021/05/25 12:17:19;;;;;;;;;;;15.90;93.80;;;;;;5074204;28;19908;-70
2021/05/25 12:19:50;;;;;;;;;;;15.80;90.60;;;;;;5079305;28;20002;-70
2021/05/25 12:22:15;;;;;;;;;;;16.00;92.20;;;;;;5077345;28;19915;-71
2021/05/25 12:24:41;;;;;;;;;;;15.90;90.60;;;;;;5082737;28;20295;-70
2021/05/25 12:27:08;;;;;;;;;;;15.60;90.10;;;;;;5075346;28;19912;-70
2021/05/25 12:29:34;;;;;;;;;;;14.90;90.00;;;;;;5084571;28;19921;-70
2021/05/25 12:31:59;;;;;;;;;;;14.50;90.40;;;;;;5081885;28;20283;-71
2021/05/25 12:34:25;;;;;;;;;;;14.20;90.50;;;;;;5074456;28;19912;-70
2021/05/25 12:37:00;;;;;;;;;;;14.00;90.70;;;;;;5074089;28;19938;-70
2021/05/25 12:39:36;;;;;;;;;;;14.10;93.20;;;;;;5079175;28;20258;-70
2021/05/25 12:42:11;;;;;;;;;;;14.40;91.30;;;;;;5080263;28;19912;-70
2021/05/25 12:44:36;;;;;;;;;;;14.90;90.30;;;;;;5085045;28;20136;-70
2021/05/25 12:47:05;;;;;;;;;;;15.50;91.00;;;;;;5071738;28;19932;-70
2021/05/25 12:49:46;;;;;;;;;;;16.10;88.20;;;;;;5080906;28;19908;-71
2021/05/25 12:52:24;;;;;;;;;;;16.50;87.50;;;;;;5079531;28;20413;-70
2021/05/25 12:55:09;;;;;;;;;;;16.50;87.40;;;;;;5076252;28;19915;-71
2021/05/25 12:57:44;;;;;;;;;;;16.70;86.80;;;;;;5082611;28;19916;-70
2021/05/25 13:00:11;;;;;;;;;;;16.90;86.00;;;;;;5080609;28;19909;-71
2021/05/25 13:02:40;;;;;;;;;;;17.20;84.70;;;;;;5076244;28;19929;-70
2021/05/25 13:05:10;;;;;;;;;;;17.20;82.40;;;;;;5074996;28;19919;-70
2021/05/25 13:07:51;;;;;;;;;;;16.90;83.90;;;;;;5084452;28;19916;-70
2021/05/25 13:10:28;;;;;;;;;;;16.40;82.90;;;;;;5089578;28;19956;-71
2021/05/25 13:12:54;;;;;;;;;;;16.30;84.40;;;;;;5075134;28;20196;-70
2021/05/25 13:15:20;;;;;;;;;;;16.40;83.30;;;;;;5082419;28;19952;-70
2021/05/25 13:17:51;;;;;;;;;;;16.50;86.60;;;;;;5077545;28;20391;-70
2021/05/25 13:20:22;;;;;;;;;;;16.50;88.00;;;;;;5086732;28;19948;-70
2021/05/25 13:22:48;;;;;;;;;;;16.20;86.00;;;;;;5082960;28;19907;-71
2021/05/25 13:25:15;;;;;;;;;;;16.20;89.10;;;;;;5083394;28;19912;-70
2021/05/25 13:27:48;;;;;;;;;;;16.30;90.10;;;;;;5083027;28;19957;-70
2021/05/25 13:30:14;;;;;;;;;;;16.70;88.90;;;;;;5075239;28;20384;-71
2021/05/25 13:32:40;;;;;;;;;;;17.00;88.20;;;;;;5087678;28;19908;-70
2021/05/25 13:35:07;;;;;;;;;;;17.20;88.70;;;;;;5076698;28;19917;-71
2021/05/25 13:37:33;;;;;;;;;;;17.40;84.00;;;;;;5078040;28;20006;-70
2021/05/25 13:40:00;;;;;;;;;;;17.60;82.40;;;;;;5078811;28;19917;-71
2021/05/25 13:42:26;;;;;;;;;;;18.10;80.20;;;;;;5082272;28;19912;-70
2021/05/25 13:44:51;;;;;;;;;;;18.10;77.60;;;;;;5078669;28;19943;-71
2021/05/25 13:47:17;;;;;;;;;;;17.60;78.50;;;;;;5088529;28;19919;-71
2021/05/25 13:49:49;;;;;;;;;;;17.20;80.60;;;;;;5072665;28;19908;-71
2021/05/25 13:52:16;;;;;;;;;;;16.80;81.00;;;;;;5078406;28;19908;-70
2021/05/25 13:54:42;;;;;;;;;;;16.50;82.00;;;;;;5075825;28;19908;-70
2021/05/25 13:57:15;;;;;;;;;;;16.40;84.80;;;;;;5088299;28;20240;-71
2021/05/25 14:00:03;;;;;;;;;;;16.30;81.70;;;;;;5078270;28;19908;-70
2021/05/25 14:02:26;;;;;;;;;;;16.20;83.40;;;;;;5085625;28;19908;-70
2021/05/25 14:04:51;;;;;;;;;;;16.10;83.70;;;;;;5072407;28;20020;-71
2021/05/25 14:07:18;;;;;;;;;;;16.30;84.20;;;;;;5079558;28;19913;-70
2021/05/25 14:09:44;;;;;;;;;;;16.30;84.10;;;;;;5082614;28;19951;-70
2021/05/25 14:12:09;;;;;;;;;;;16.30;86.50;;;;;;5072691;28;20401;-70
2021/05/25 14:14:35;;;;;;;;;;;16.20;82.40;;;;;;5077301;28;19919;-70
2021/05/25 14:17:01;;;;;;;;;;;16.00;82.90;;;;;;5078001;28;19913;-69
2021/05/25 14:19:26;;;;;;;;;;;16.10;83.50;;;;;;5073091;28;19955;-70
2021/05/25 14:21:52;;;;;;;;;;;16.60;83.10;;;;;;5069853;28;20316;-71
2021/05/25 14:24:18;;;;;;;;;;;17.10;82.90;;;;;;5083474;28;19913;-70
2021/05/25 14:26:43;;;;;;;;;;;17.50;79.90;;;;;;5080824;28;19909;-71
2021/05/25 14:29:09;;;;;;;;;;;17.90;80.60;;;;;;5082470;28;19944;-71
2021/05/25 14:31:36;;;;;;;;;;;18.30;78.40;;;;;;5078080;28;20395;-71
2021/05/25 14:34:01;;;;;;;;;;;18.80;80.50;;;;;;5075814;28;19912;-70